Holly Ridge, Louisiana
Current Conditions -  °F | °C
As of 11:53 AM on Thursday 23 Oct 2014 (Local Time) from KMLU Reporting Station
NA  
Wind Chill: 62°   Ceiling: NA
Heat Index: 62°   Visibility: 10mi
Dew Point: 48°   Wind: 0mph
Humidity: 60%   Direction: NA
Pressure: 30.19"   Gusts: NA
Location:  32.4475°N, 91.7992°W
Report Text: KMLU 231653Z 00000KT 10SM 17/09 A3019 RMK AO2 SLPNO T01670089
Loading
Personal Weather Stations






























Interactive Weather Map
Tropical Storm Tracking
New forecast layout! Learn more

10-Day Weather Forecast

Advertisements
Track Severe Weather on mobile